Time;durP1;ratioP1;P1;durP2;ratioP2;P2;SDS_P1;SDS_P2;PMS_P1;PMS_P2;Temp;Humidity;BMP_temperature;BMP_pressure;BME280_temperature;BME280_humidity;BME280_pressure;Samples;Min_cycle;Max_cycle;Signal;HPM_P1;HPM_P2
2024/01/20 00:01:45;;;;;;;10.05;5.43;;;;;;;;;;5036150;28;20118;-80
2024/01/20 00:04:11;;;;;;;12.25;5.70;;;;;;;;;;5037502;28;20037;-82
2024/01/20 00:06:36;;;;;;;11.38;4.97;;;;;;;;;;5026578;28;20558;-83
2024/01/20 00:09:02;;;;;;;11.68;4.93;;;;;;;;;;5037460;28;20044;-80
2024/01/20 00:11:28;;;;;;;12.93;5.13;;;;;;;;;;5026684;28;20041;-82
2024/01/20 00:13:53;;;;;;;10.52;4.90;;;;;;;;;;5036157;28;20419;-81
2024/01/20 00:16:18;;;;;;;11.02;5.28;;;;;;;;;;5033381;28;20104;-82
2024/01/20 00:18:44;;;;;;;13.73;5.15;;;;;;;;;;5020914;28;20047;-80
2024/01/20 00:21:09;;;;;;;17.42;5.45;;;;;;;;;;5033499;28;20086;-81
2024/01/20 00:23:37;;;;;;;14.73;4.93;;;;;;;;;;5035814;28;20429;-82
2024/01/20 00:26:02;;;;;;;13.20;5.25;;;;;;;;;;5033658;28;20046;-83
2024/01/20 00:28:28;;;;;;;11.13;5.05;;;;;;;;;;5020446;28;20064;-82
2024/01/20 00:30:53;;;;;;;13.88;5.45;;;;;;;;;;5043078;28;20044;-81
2024/01/20 00:33:19;;;;;;;12.77;5.25;;;;;;;;;;5035473;28;20397;-81
2024/01/20 00:35:45;;;;;;;11.02;4.88;;;;;;;;;;5036995;28;20037;-80
2024/01/20 00:38:10;;;;;;;10.05;5.03;;;;;;;;;;5038934;28;20554;-82
2024/01/20 00:40:36;;;;;;;12.35;5.75;;;;;;;;;;5036531;28;20074;-81
2024/01/20 00:43:01;;;;;;;11.52;5.13;;;;;;;;;;5036085;28;20560;-82
2024/01/20 00:45:29;;;;;;;12.65;5.05;;;;;;;;;;5033082;28;20507;-80
2024/01/20 00:47:55;;;;;;;13.57;5.93;;;;;;;;;;5043608;28;20108;-82
2024/01/20 00:50:20;;;;;;;13.13;5.57;;;;;;;;;;5019260;28;20587;-80
2024/01/20 00:52:45;;;;;;;13.38;5.20;;;;;;;;;;5036832;28;20033;-82
2024/01/20 00:55:11;;;;;;;11.40;5.55;;;;;;;;;;5037052;28;20401;-80
2024/01/20 00:57:37;;;;;;;13.40;5.95;;;;;;;;;;5033763;28;20040;-81
2024/01/20 01:00:08;;;;;;;10.43;5.28;;;;;;;;;;5034629;28;20044;-82
2024/01/20 01:02:33;;;;;;;11.63;5.90;;;;;;;;;;5035381;28;20045;-81
2024/01/20 01:04:59;;;;;;;12.98;5.32;;;;;;;;;;5034125;28;20044;-81
2024/01/20 01:07:24;;;;;;;12.07;5.63;;;;;;;;;;5037375;28;20091;-81
2024/01/20 01:09:50;;;;;;;12.60;5.88;;;;;;;;;;5033745;28;20378;-82
2024/01/20 01:12:15;;;;;;;13.80;5.68;;;;;;;;;;5034496;28;20090;-82
2024/01/20 01:14:41;;;;;;;11.90;5.78;;;;;;;;;;5037869;28;20056;-81
2024/01/20 01:17:06;;;;;;;16.35;5.72;;;;;;;;;;5037504;28;20033;-80
2024/01/20 01:19:31;;;;;;;13.30;5.57;;;;;;;;;;5033060;28;20032;-81
2024/01/20 01:21:58;;;;;;;14.52;6.38;;;;;;;;;;5033483;28;20040;-81
2024/01/20 01:24:23;;;;;;;12.43;5.72;;;;;;;;;;5034286;28;20064;-81
2024/01/20 01:26:48;;;;;;;13.25;5.85;;;;;;;;;;5019617;28;20125;-82
2024/01/20 01:29:14;;;;;;;16.95;6.20;;;;;;;;;;5017247;28;20045;-83
2024/01/20 01:31:39;;;;;;;14.10;6.18;;;;;;;;;;5023328;28;20494;-81
2024/01/20 01:34:05;;;;;;;13.48;6.18;;;;;;;;;;5035443;28;20068;-83
2024/01/20 01:36:30;;;;;;;13.60;6.03;;;;;;;;;;5032511;28;20046;-83
2024/01/20 01:38:55;;;;;;;12.48;6.10;;;;;;;;;;5036126;28;20030;-80
2024/01/20 01:41:21;;;;;;;13.95;6.18;;;;;;;;;;5043878;28;20044;-80
2024/01/20 01:43:46;;;;;;;13.98;6.45;;;;;;;;;;5043774;28;20087;-81
2024/01/20 01:46:11;;;;;;;12.43;5.57;;;;;;;;;;5033549;28;20065;-81
2024/01/20 01:48:37;;;;;;;13.80;6.38;;;;;;;;;;5033109;28;20049;-80
2024/01/20 01:51:04;;;;;;;13.05;6.38;;;;;;;;;;5034535;28;20052;-81
2024/01/20 01:53:31;;;;;;;18.35;7.28;;;;;;;;;;5035150;28;20211;-81
2024/01/20 01:55:59;;;;;;;13.30;6.63;;;;;;;;;;5036284;28;20587;-82
2024/01/20 01:58:26;;;;;;;15.15;6.50;;;;;;;;;;5035740;28;20033;-81
2024/01/20 02:00:51;;;;;;;14.27;6.35;;;;;;;;;;5015169;28;20039;-81
2024/01/20 02:03:17;;;;;;;13.25;6.78;;;;;;;;;;5038573;28;20041;-81
2024/01/20 02:05:42;;;;;;;13.40;6.57;;;;;;;;;;5030084;28;20037;-81
2024/01/20 02:08:08;;;;;;;16.88;7.25;;;;;;;;;;5020139;28;20060;-81
2024/01/20 02:10:33;;;;;;;17.20;6.40;;;;;;;;;;5032953;28;20499;-80
2024/01/20 02:13:00;;;;;;;14.90;6.80;;;;;;;;;;5035205;28;20076;-81
2024/01/20 02:15:27;;;;;;;14.98;6.85;;;;;;;;;;5033848;28;20472;-83
2024/01/20 02:17:53;;;;;;;14.73;7.07;;;;;;;;;;5043292;28;20397;-82
2024/01/20 02:20:19;;;;;;;15.43;6.87;;;;;;;;;;5036151;28;20033;-82
2024/01/20 02:22:44;;;;;;;13.98;6.78;;;;;;;;;;5017071;28;20026;-83
2024/01/20 02:25:10;;;;;;;16.25;7.15;;;;;;;;;;5033357;28;20041;-81
2024/01/20 02:27:35;;;;;;;14.63;6.88;;;;;;;;;;5035097;28;20041;-81
2024/01/20 02:30:01;;;;;;;17.90;6.88;;;;;;;;;;5019960;28;20497;-80
2024/01/20 02:32:26;;;;;;;16.17;7.22;;;;;;;;;;5018569;28;20047;-80
2024/01/20 02:34:52;;;;;;;17.35;7.18;;;;;;;;;;5025129;28;20611;-82
2024/01/20 02:37:17;;;;;;;13.73;7.28;;;;;;;;;;5031823;28;20036;-82
2024/01/20 02:39:43;;;;;;;13.98;7.03;;;;;;;;;;5032529;28;20057;-82
2024/01/20 02:42:09;;;;;;;14.82;7.10;;;;;;;;;;5034832;28;20124;-81
2024/01/20 02:44:35;;;;;;;16.40;7.47;;;;;;;;;;5034991;28;20053;-82
2024/01/20 02:47:01;;;;;;;14.98;7.05;;;;;;;;;;5025698;28;20071;-81
2024/01/20 02:49:27;;;;;;;13.30;6.75;;;;;;;;;;5023828;28;20056;-82
2024/01/20 02:51:52;;;;;;;13.77;7.18;;;;;;;;;;5032790;28;20037;-81
2024/01/20 02:54:17;;;;;;;16.60;7.63;;;;;;;;;;5038423;28;20033;-81
2024/01/20 02:56:43;;;;;;;15.82;7.32;;;;;;;;;;5031532;28;20044;-81
2024/01/20 02:59:08;;;;;;;15.50;7.20;;;;;;;;;;5039496;28;20037;-81
2024/01/20 03:01:33;;;;;;;16.15;7.85;;;;;;;;;;5032372;28;20501;-81
2024/01/20 03:04:19;;;;;;;12.48;6.78;;;;;;;;;;5035541;28;20116;-81
2024/01/20 03:06:44;;;;;;;13.43;7.38;;;;;;;;;;4966957;28;20050;-82
2024/01/20 03:09:14;;;;;;;13.90;7.32;;;;;;;;;;4967795;28;20085;-81
2024/01/20 03:11:41;;;;;;;14.82;7.35;;;;;;;;;;4967208;28;20045;-81
2024/01/20 03:14:07;;;;;;;15.27;8.20;;;;;;;;;;4987864;28;20046;-81
2024/01/20 03:16:32;;;;;;;18.95;7.80;;;;;;;;;;4970361;28;20281;-81
2024/01/20 03:18:58;;;;;;;15.57;7.28;;;;;;;;;;4987560;28;20801;-84
2024/01/20 03:21:23;;;;;;;15.35;7.57;;;;;;;;;;4986823;28;20038;-81
2024/01/20 03:23:49;;;;;;;16.85;7.53;;;;;;;;;;4971660;28;20161;-81
2024/01/20 03:26:14;;;;;;;14.88;7.15;;;;;;;;;;4986904;28;20117;-80
2024/01/20 03:28:40;;;;;;;18.85;7.15;;;;;;;;;;4955583;28;20089;-81
2024/01/20 03:31:06;;;;;;;16.27;7.88;;;;;;;;;;4986348;28;20589;-82
2024/01/20 03:33:31;;;;;;;17.70;7.68;;;;;;;;;;4988100;28;20049;-82
2024/01/20 03:35:57;;;;;;;16.83;7.15;;;;;;;;;;4986801;28;20446;-82
2024/01/20 03:38:22;;;;;;;13.20;7.20;;;;;;;;;;4986930;28;20532;-81
2024/01/20 03:40:48;;;;;;;15.07;8.13;;;;;;;;;;4974444;28;20042;-80
2024/01/20 03:43:13;;;;;;;15.23;7.15;;;;;;;;;;5003711;28;20072;-82
2024/01/20 03:45:39;;;;;;;14.82;6.93;;;;;;;;;;5039532;28;20056;-80
2024/01/20 03:48:05;;;;;;;16.20;7.88;;;;;;;;;;5038967;28;20037;-80
2024/01/20 03:50:30;;;;;;;15.80;7.95;;;;;;;;;;5023850;28;20455;-81
2024/01/20 03:52:55;;;;;;;13.30;7.13;;;;;;;;;;5040266;28;20025;-84
2024/01/20 03:55:21;;;;;;;15.77;7.20;;;;;;;;;;5036059;28;20059;-85
2024/01/20 03:57:46;;;;;;;15.52;7.30;;;;;;;;;;5036690;28;20164;-82
2024/01/20 04:00:12;;;;;;;14.93;7.53;;;;;;;;;;5036832;28;20034;-81
2024/01/20 04:02:38;;;;;;;14.27;7.40;;;;;;;;;;5019506;28;20776;-83
2024/01/20 04:05:04;;;;;;;15.43;7.95;;;;;;;;;;5023038;28;20034;-81
2024/01/20 04:07:29;;;;;;;15.52;7.43;;;;;;;;;;5036598;28;20432;-81
2024/01/20 04:09:54;;;;;;;14.48;7.32;;;;;;;;;;5040695;28;20041;-82
2024/01/20 04:12:20;;;;;;;16.20;7.80;;;;;;;;;;5020628;28;20500;-82
2024/01/20 04:14:45;;;;;;;13.18;7.15;;;;;;;;;;5037748;28;20404;-83
2024/01/20 04:17:11;;;;;;;18.17;7.95;;;;;;;;;;5035576;28;20420;-81
2024/01/20 04:19:36;;;;;;;16.98;7.78;;;;;;;;;;5038291;28;20033;-80
2024/01/20 04:22:01;;;;;;;15.18;7.72;;;;;;;;;;5035010;28;20554;-80
2024/01/20 04:24:27;;;;;;;12.27;7.05;;;;;;;;;;5042713;28;20037;-80
2024/01/20 04:26:52;;;;;;;13.77;7.35;;;;;;;;;;5017849;28;20409;-81
2024/01/20 04:29:17;;;;;;;15.98;7.20;;;;;;;;;;5024094;28;20033;-81
2024/01/20 04:31:43;;;;;;;15.05;7.82;;;;;;;;;;5035067;28;20065;-81
2024/01/20 04:34:08;;;;;;;17.73;7.63;;;;;;;;;;5020397;28;20112;-81
2024/01/20 04:36:33;;;;;;;18.55;7.65;;;;;;;;;;5036041;28;20056;-82
2024/01/20 04:38:59;;;;;;;15.35;7.82;;;;;;;;;;5036920;28;20425;-81
2024/01/20 04:41:24;;;;;;;16.05;8.10;;;;;;;;;;5035696;28;20048;-81
2024/01/20 04:43:50;;;;;;;16.70;7.97;;;;;;;;;;5037429;28;20034;-80
2024/01/20 04:46:15;;;;;;;15.73;8.18;;;;;;;;;;5035003;28;20128;-81
2024/01/20 04:48:40;;;;;;;15.68;8.18;;;;;;;;;;5042936;28;20041;-82
2024/01/20 04:51:06;;;;;;;14.40;7.72;;;;;;;;;;5020882;28;20437;-82
2024/01/20 04:53:31;;;;;;;14.88;8.20;;;;;;;;;;5034364;28;20047;-82
2024/01/20 04:55:56;;;;;;;16.98;8.25;;;;;;;;;;5037591;28;20033;-82
2024/01/20 04:58:22;;;;;;;15.43;8.02;;;;;;;;;;5035054;28;20056;-82
2024/01/20 05:00:47;;;;;;;19.48;8.65;;;;;;;;;;5031271;28;20041;-81
2024/01/20 05:03:13;;;;;;;16.58;7.88;;;;;;;;;;5037556;28;20128;-80
2024/01/20 05:05:39;;;;;;;16.10;8.10;;;;;;;;;;5034206;28;20090;-82
2024/01/20 05:08:05;;;;;;;17.60;8.30;;;;;;;;;;5037074;28;20393;-81
2024/01/20 05:10:30;;;;;;;15.27;7.95;;;;;;;;;;5033185;28;20045;-82
2024/01/20 05:12:55;;;;;;;18.00;8.75;;;;;;;;;;5025951;28;20037;-82
2024/01/20 05:15:21;;;;;;;17.90;8.65;;;;;;;;;;5036478;28;20036;-82
2024/01/20 05:17:46;;;;;;;18.10;8.75;;;;;;;;;;5034920;28;20056;-81
2024/01/20 05:20:13;;;;;;;18.98;9.00;;;;;;;;;;5036337;28;20048;-81
2024/01/20 05:22:39;;;;;;;17.42;8.40;;;;;;;;;;5034718;28;20069;-81
2024/01/20 05:25:04;;;;;;;16.00;8.27;;;;;;;;;;5040567;28;20064;-80
2024/01/20 05:27:30;;;;;;;19.10;9.38;;;;;;;;;;5041838;28;20475;-81
2024/01/20 05:29:55;;;;;;;16.15;8.73;;;;;;;;;;5034462;28;20045;-80
2024/01/20 05:32:21;;;;;;;16.77;8.05;;;;;;;;;;5020227;28;20384;-81
2024/01/20 05:34:48;;;;;;;17.20;8.52;;;;;;;;;;5034696;28;20029;-81
2024/01/20 05:37:14;;;;;;;16.98;8.80;;;;;;;;;;5033085;28;20035;-81
2024/01/20 05:39:40;;;;;;;19.13;9.02;;;;;;;;;;5037235;28;20769;-80
2024/01/20 05:42:05;;;;;;;15.88;8.25;;;;;;;;;;5038855;28;20038;-82
2024/01/20 05:44:30;;;;;;;18.80;8.55;;;;;;;;;;5036453;28;20545;-81
2024/01/20 05:46:56;;;;;;;17.77;8.65;;;;;;;;;;5029382;28;20029;-81
2024/01/20 05:49:21;;;;;;;15.13;8.13;;;;;;;;;;5033534;28;20037;-81
2024/01/20 05:51:46;;;;;;;20.17;9.05;;;;;;;;;;5034444;28;20040;-81
2024/01/20 05:54:12;;;;;;;18.50;8.52;;;;;;;;;;5036456;28;20052;-82
2024/01/20 05:56:37;;;;;;;16.38;8.55;;;;;;;;;;5033384;28;20072;-81
2024/01/20 05:59:03;;;;;;;16.70;8.50;;;;;;;;;;5033134;28;20120;-82
2024/01/20 06:01:28;;;;;;;14.57;8.25;;;;;;;;;;5028040;28;20040;-81
2024/01/20 06:03:54;;;;;;;18.70;8.93;;;;;;;;;;5040492;28;20041;-82
2024/01/20 06:06:19;;;;;;;15.05;8.57;;;;;;;;;;5034931;28;20456;-81
2024/01/20 06:08:44;;;;;;;18.10;8.63;;;;;;;;;;5036675;28;20455;-82
2024/01/20 06:11:10;;;;;;;18.35;8.85;;;;;;;;;;5033602;28;20079;-81
2024/01/20 06:13:37;;;;;;;15.63;8.65;;;;;;;;;;5036706;28;20103;-81
2024/01/20 06:16:02;;;;;;;18.67;8.82;;;;;;;;;;5030981;28;20036;-80
2024/01/20 06:18:27;;;;;;;15.50;7.97;;;;;;;;;;5041341;28;20033;-81
2024/01/20 06:20:54;;;;;;;19.02;8.70;;;;;;;;;;5034427;28;20029;-82
2024/01/20 06:23:19;;;;;;;18.13;9.25;;;;;;;;;;5019441;28;20072;-81
2024/01/20 06:25:45;;;;;;;17.52;8.45;;;;;;;;;;5016846;28;20079;-81
2024/01/20 06:28:10;;;;;;;16.02;8.80;;;;;;;;;;5032545;28;20491;-81
2024/01/20 06:30:38;;;;;;;15.85;8.80;;;;;;;;;;5032979;28;20049;-81
2024/01/20 06:33:04;;;;;;;18.52;8.48;;;;;;;;;;5032151;28;20176;-81
2024/01/20 06:35:29;;;;;;;15.77;8.40;;;;;;;;;;5034404;28;20049;-81
2024/01/20 06:37:54;;;;;;;15.70;8.10;;;;;;;;;;5034303;28;20053;-81
2024/01/20 06:40:20;;;;;;;17.65;8.88;;;;;;;;;;5038688;28;20049;-81
2024/01/20 06:42:45;;;;;;;17.95;9.48;;;;;;;;;;5036398;28;20116;-82
2024/01/20 06:45:11;;;;;;;14.60;8.80;;;;;;;;;;5035010;28;20056;-81
2024/01/20 06:47:36;;;;;;;15.50;8.60;;;;;;;;;;5022792;28;20033;-81
2024/01/20 06:50:05;;;;;;;16.52;8.07;;;;;;;;;;5024448;28;20041;-81
2024/01/20 06:52:32;;;;;;;17.55;9.45;;;;;;;;;;5021746;28;20700;-81
2024/01/20 06:54:58;;;;;;;16.50;8.60;;;;;;;;;;5035811;28;20118;-80
2024/01/20 06:57:23;;;;;;;17.63;8.55;;;;;;;;;;5038691;28;20057;-81
2024/01/20 06:59:49;;;;;;;18.48;9.07;;;;;;;;;;5036968;28;20551;-81
2024/01/20 07:02:14;;;;;;;19.00;9.10;;;;;;;;;;5033890;28;20056;-80
2024/01/20 07:04:40;;;;;;;16.23;9.20;;;;;;;;;;5037712;28;20065;-80
2024/01/20 07:07:06;;;;;;;15.95;8.27;;;;;;;;;;5037613;28;20424;-79
2024/01/20 07:09:31;;;;;;;13.27;8.38;;;;;;;;;;5036842;28;20506;-82
2024/01/20 07:11:57;;;;;;;17.55;9.13;;;;;;;;;;5036981;28;20061;-82
2024/01/20 07:14:26;;;;;;;19.75;8.63;;;;;;;;;;5035531;28;20037;-81
2024/01/20 07:16:52;;;;;;;18.63;9.50;;;;;;;;;;5037770;28;20088;-82
2024/01/20 07:19:17;;;;;;;14.02;8.02;;;;;;;;;;5039014;28;20075;-82
2024/01/20 07:21:43;;;;;;;16.98;9.10;;;;;;;;;;5038188;28;20037;-82
2024/01/20 07:24:08;;;;;;;15.60;9.27;;;;;;;;;;5039208;28;20076;-82
2024/01/20 07:26:33;;;;;;;15.68;8.10;;;;;;;;;;5021597;28;20112;-82
2024/01/20 07:28:59;;;;;;;18.13;9.20;;;;;;;;;;5025491;28;20029;-82
2024/01/20 07:31:24;;;;;;;16.80;8.32;;;;;;;;;;5034117;28;20199;-81
2024/01/20 07:33:49;;;;;;;16.23;8.52;;;;;;;;;;5021483;28;20045;-83
2024/01/20 07:36:15;;;;;;;16.45;8.15;;;;;;;;;;5026970;28;20068;-82
2024/01/20 07:38:40;;;;;;;17.23;9.50;;;;;;;;;;5023487;28;20052;-83
2024/01/20 07:41:07;;;;;;;15.90;8.80;;;;;;;;;;5037514;28;20056;-82
2024/01/20 07:43:32;;;;;;;17.13;8.30;;;;;;;;;;5034517;28;20511;-82
2024/01/20 07:45:58;;;;;;;15.90;8.80;;;;;;;;;;5034476;28;20183;-81
2024/01/20 07:48:23;;;;;;;21.33;8.77;;;;;;;;;;5027785;28;20033;-82
2024/01/20 07:50:49;;;;;;;20.45;9.30;;;;;;;;;;5040468;28;20393;-83
2024/01/20 07:53:14;;;;;;;16.50;8.90;;;;;;;;;;5037674;28;20035;-82
2024/01/20 07:55:39;;;;;;;19.17;9.15;;;;;;;;;;5038922;28;20040;-82
2024/01/20 07:58:05;;;;;;;16.55;8.93;;;;;;;;;;5036280;28;20057;-82
2024/01/20 08:00:30;;;;;;;16.00;8.60;;;;;;;;;;5035343;28;20048;-82
2024/01/20 08:02:56;;;;;;;18.02;9.60;;;;;;;;;;5035620;28;20041;-82
2024/01/20 08:05:21;;;;;;;18.55;8.90;;;;;;;;;;5036726;28;20041;-77
2024/01/20 08:07:46;;;;;;;18.30;8.63;;;;;;;;;;5021203;28;20037;-77
2024/01/20 08:10:12;;;;;;;17.70;9.70;;;;;;;;;;5037052;28;20124;-82
2024/01/20 08:12:38;;;;;;;15.55;8.43;;;;;;;;;;5038623;28;20979;-83
2024/01/20 08:15:05;;;;;;;18.50;8.27;;;;;;;;;;5036721;28;20028;-82
2024/01/20 08:17:31;;;;;;;18.30;8.77;;;;;;;;;;5027713;28;20037;-82
2024/01/20 08:19:56;;;;;;;16.60;8.68;;;;;;;;;;5036462;28;20493;-82
2024/01/20 08:22:22;;;;;;;20.27;8.43;;;;;;;;;;5020287;28;20042;-81
2024/01/20 08:24:47;;;;;;;15.43;8.55;;;;;;;;;;5022137;28;20032;-82
2024/01/20 08:27:13;;;;;;;19.00;8.45;;;;;;;;;;5034312;28;20041;-83
2024/01/20 08:29:38;;;;;;;17.42;8.57;;;;;;;;;;5036240;28;20037;-82
2024/01/20 08:32:04;;;;;;;13.13;7.82;;;;;;;;;;5019098;28;20036;-81
2024/01/20 08:34:29;;;;;;;18.05;7.93;;;;;;;;;;5042385;28;20063;-82
2024/01/20 08:36:55;;;;;;;13.88;8.13;;;;;;;;;;5035897;28;20094;-82
2024/01/20 08:39:20;;;;;;;14.57;8.15;;;;;;;;;;5033710;28;20568;-82
2024/01/20 08:41:46;;;;;;;15.57;8.25;;;;;;;;;;5021270;28;20037;-82
2024/01/20 08:44:12;;;;;;;17.42;8.05;;;;;;;;;;5036658;28;20116;-81
2024/01/20 08:46:38;;;;;;;14.73;7.78;;;;;;;;;;5034034;28;20128;-81
2024/01/20 08:49:03;;;;;;;15.60;7.75;;;;;;;;;;5034974;28;20484;-82
2024/01/20 08:51:29;;;;;;;16.85;7.50;;;;;;;;;;5014458;28;20041;-81
2024/01/20 08:53:54;;;;;;;16.73;8.85;;;;;;;;;;5035446;28;20407;-83
2024/01/20 08:56:20;;;;;;;14.98;8.27;;;;;;;;;;5019963;28;20416;-83
2024/01/20 08:58:45;;;;;;;15.95;7.53;;;;;;;;;;5021549;28;20502;-83
2024/01/20 09:01:10;;;;;;;15.63;7.57;;;;;;;;;;5020926;28;20065;-80
2024/01/20 09:03:36;;;;;;;15.02;8.30;;;;;;;;;;5034999;28;20575;-80
2024/01/20 09:06:01;;;;;;;13.85;7.30;;;;;;;;;;5035386;28;20038;-79
2024/01/20 09:08:27;;;;;;;13.85;7.85;;;;;;;;;;5038537;28;20041;-81
2024/01/20 09:10:52;;;;;;;16.48;7.57;;;;;;;;;;5034017;28;20049;-82
2024/01/20 09:13:18;;;;;;;16.63;7.78;;;;;;;;;;5036183;28;21136;-81
2024/01/20 09:15:44;;;;;;;15.38;7.75;;;;;;;;;;5023732;28;20542;-80
2024/01/20 09:18:11;;;;;;;14.65;7.45;;;;;;;;;;5035638;28;21092;-81
2024/01/20 09:20:37;;;;;;;15.65;7.25;;;;;;;;;;5033805;28;20549;-82
2024/01/20 09:23:02;;;;;;;13.38;7.57;;;;;;;;;;5034545;28;20167;-82
2024/01/20 09:25:28;;;;;;;16.35;7.57;;;;;;;;;;5037380;28;20037;-82
2024/01/20 09:27:53;;;;;;;16.05;7.60;;;;;;;;;;5033242;28;20029;-83
2024/01/20 09:30:18;;;;;;;16.52;7.68;;;;;;;;;;5036713;28;20049;-82
2024/01/20 09:32:44;;;;;;;12.52;7.85;;;;;;;;;;5037310;28;20040;-82
2024/01/20 09:35:09;;;;;;;14.48;7.70;;;;;;;;;;5032020;28;20389;-82
2024/01/20 09:37:37;;;;;;;17.40;7.63;;;;;;;;;;5034021;28;20048;-83
2024/01/20 09:40:07;;;;;;;14.85;7.18;;;;;;;;;;5022092;28;20392;-82
2024/01/20 09:42:33;;;;;;;25.60;8.93;;;;;;;;;;5036221;28;20037;-84
2024/01/20 09:44:59;;;;;;;17.08;8.02;;;;;;;;;;5036602;28;20489;-82
2024/01/20 09:47:24;;;;;;;16.58;8.13;;;;;;;;;;5034727;28;20102;-82
2024/01/20 09:49:50;;;;;;;14.40;8.07;;;;;;;;;;5034519;28;20071;-82
2024/01/20 09:52:15;;;;;;;16.23;8.02;;;;;;;;;;5025674;28;20500;-82
2024/01/20 09:54:55;;;;;;;12.82;6.88;;;;;;;;;;5025412;28;20430;-84
2024/01/20 09:57:47;;;;;;;;;;;;;;;;;;;;;
2024/01/20 10:00:37;;;;;;;14.18;7.95;;;;;;;;;;4970227;28;20033;-81
2024/01/20 10:03:05;;;;;;;14.07;6.88;;;;;;;;;;5015676;28;20120;-80
2024/01/20 10:05:31;;;;;;;13.23;6.80;;;;;;;;;;5031895;28;20034;-82
2024/01/20 10:07:59;;;;;;;16.10;7.65;;;;;;;;;;5034721;28;20378;-82
2024/01/20 10:10:25;;;;;;;12.73;6.90;;;;;;;;;;5033939;28;20144;-82
2024/01/20 10:12:50;;;;;;;14.13;7.38;;;;;;;;;;5016441;28;20592;-81
2024/01/20 10:15:25;;;;;;;13.38;7.53;;;;;;;;;;5043185;28;20177;-80
2024/01/20 10:17:54;;;;;;;17.88;7.53;;;;;;;;;;5035697;28;20048;-81
2024/01/20 10:20:20;;;;;;;12.77;6.90;;;;;;;;;;5026638;28;20076;-80
2024/01/20 10:22:46;;;;;;;14.25;7.20;;;;;;;;;;5037161;28;20123;-83
2024/01/20 10:25:18;;;;;;;12.50;7.35;;;;;;;;;;5021643;28;20037;-83
2024/01/20 10:27:44;;;;;;;13.10;6.68;;;;;;;;;;5023721;28;20037;-83
2024/01/20 10:30:10;;;;;;;14.85;7.32;;;;;;;;;;5024449;28;20052;-81
2024/01/20 10:32:38;;;;;;;14.55;6.93;;;;;;;;;;5035950;28;20045;-82
2024/01/20 10:35:04;;;;;;;14.18;7.43;;;;;;;;;;5039336;28;20393;-82
2024/01/20 10:37:30;;;;;;;13.27;7.65;;;;;;;;;;5033758;28;20026;-82
2024/01/20 10:39:58;;;;;;;14.32;7.53;;;;;;;;;;5037983;28;20036;-83
2024/01/20 10:42:30;;;;;;;16.05;7.47;;;;;;;;;;5035738;28;20044;-83
2024/01/20 10:45:06;;;;;;;12.70;7.00;;;;;;;;;;5019669;28;20079;-80
2024/01/20 10:47:40;;;;;;;13.65;6.93;;;;;;;;;;5037981;28;20041;-81
2024/01/20 10:50:07;;;;;;;13.05;7.60;;;;;;;;;;5044049;28;20582;-80
2024/01/20 10:52:34;;;;;;;14.80;6.97;;;;;;;;;;5037006;28;20033;-81
2024/01/20 10:55:04;;;;;;;13.93;6.90;;;;;;;;;;5036234;28;20124;-79
2024/01/20 10:57:29;;;;;;;13.85;7.13;;;;;;;;;;5035374;28;20506;-79
2024/01/20 10:59:56;;;;;;;14.10;7.10;;;;;;;;;;5036489;28;20028;-78
2024/01/20 11:02:27;;;;;;;12.15;6.65;;;;;;;;;;5027083;28;20048;-79
2024/01/20 11:04:52;;;;;;;15.98;7.55;;;;;;;;;;5038286;28;20362;-78
2024/01/20 11:07:22;;;;;;;15.75;7.75;;;;;;;;;;5022459;28;20075;-78
2024/01/20 11:09:56;;;;;;;16.27;7.90;;;;;;;;;;5032852;28;20045;-77
2024/01/20 11:12:22;;;;;;;13.20;6.63;;;;;;;;;;5038557;28;20109;-80
2024/01/20 11:14:55;;;;;;;14.93;7.37;;;;;;;;;;5037196;28;20389;-80
2024/01/20 11:17:21;;;;;;;16.42;7.95;;;;;;;;;;5008832;28;20056;-78
2024/01/20 11:19:47;;;;;;;15.35;7.45;;;;;;;;;;5035923;28;20029;-80
2024/01/20 11:22:29;;;;;;;14.52;7.57;;;;;;;;;;5042892;28;20045;-78
2024/01/20 11:25:05;;;;;;;12.23;7.18;;;;;;;;;;5036302;28;20099;-78
2024/01/20 11:27:31;;;;;;;13.75;7.18;;;;;;;;;;5038263;28;20033;-77
2024/01/20 11:30:08;;;;;;;15.25;6.82;;;;;;;;;;5036394;28;20056;-79
2024/01/20 11:32:33;;;;;;;13.90;6.55;;;;;;;;;;5005581;28;20105;-78
2024/01/20 11:34:59;;;;;;;12.73;6.68;;;;;;;;;;5032533;28;20118;-78
2024/01/20 11:37:26;;;;;;;14.20;6.90;;;;;;;;;;5036895;28;20082;-79
2024/01/20 11:40:07;;;;;;;12.52;6.28;;;;;;;;;;5036016;28;20751;-78
2024/01/20 11:42:35;;;;;;;12.45;6.60;;;;;;;;;;5036951;28;20057;-79
2024/01/20 11:45:04;;;;;;;12.93;6.80;;;;;;;;;;5044342;28;20138;-78
2024/01/20 11:47:30;;;;;;;13.68;6.57;;;;;;;;;;5031850;28;20045;-78
2024/01/20 11:49:56;;;;;;;11.00;6.78;;;;;;;;;;5039210;28;20391;-80
2024/01/20 11:52:22;;;;;;;12.57;6.47;;;;;;;;;;5026792;28;20038;-81
2024/01/20 11:54:47;;;;;;;11.65;6.15;;;;;;;;;;5021395;28;20037;-78
2024/01/20 11:57:26;;;;;;;12.45;6.55;;;;;;;;;;5034689;28;20072;-78
2024/01/20 11:59:52;;;;;;;10.65;6.20;;;;;;;;;;5022293;28;20029;-78
2024/01/20 12:02:18;;;;;;;11.63;6.65;;;;;;;;;;5021988;28;20370;-78
2024/01/20 12:04:43;;;;;;;11.40;6.22;;;;;;;;;;5035627;28;20025;-77
2024/01/20 12:07:09;;;;;;;10.48;5.82;;;;;;;;;;5035134;28;20037;-78
2024/01/20 12:09:37;;;;;;;13.60;6.22;;;;;;;;;;5035326;28;20033;-79
2024/01/20 12:12:03;;;;;;;13.70;6.65;;;;;;;;;;5017104;28;20084;-79
2024/01/20 12:14:28;;;;;;;11.57;5.90;;;;;;;;;;5033297;28;20040;-80
2024/01/20 12:17:15;;;;;;;12.52;6.40;;;;;;;;;;5043135;28;20493;-79
2024/01/20 12:19:41;;;;;;;15.38;6.43;;;;;;;;;;4965875;28;20407;-79
2024/01/20 12:22:12;;;;;;;14.55;6.07;;;;;;;;;;4962842;28;20085;-79
2024/01/20 12:24:37;;;;;;;10.88;5.82;;;;;;;;;;4948879;28;20559;-80
2024/01/20 12:27:05;;;;;;;11.20;6.28;;;;;;;;;;4950751;28;20041;-81
2024/01/20 12:29:31;;;;;;;11.15;5.80;;;;;;;;;;4963614;28;20366;-79
2024/01/20 12:31:57;;;;;;;12.68;6.15;;;;;;;;;;4963438;28;20050;-77
2024/01/20 12:34:25;;;;;;;9.00;5.80;;;;;;;;;;4950800;28;20593;-78
2024/01/20 12:36:53;;;;;;;11.50;5.90;;;;;;;;;;4966799;28;20038;-78
2024/01/20 12:39:18;;;;;;;13.27;6.40;;;;;;;;;;4935713;28;20047;-78
2024/01/20 12:41:44;;;;;;;10.73;5.72;;;;;;;;;;4951223;28;20034;-76
2024/01/20 12:44:09;;;;;;;11.75;6.07;;;;;;;;;;4949110;28;20130;-78
2024/01/20 12:46:35;;;;;;;12.48;5.97;;;;;;;;;;4959070;28;20540;-78
2024/01/20 12:49:00;;;;;;;11.40;5.68;;;;;;;;;;4964285;28;20031;-78
2024/01/20 12:51:26;;;;;;;10.38;5.47;;;;;;;;;;4947618;28;20039;-79
2024/01/20 12:53:51;;;;;;;10.57;5.38;;;;;;;;;;4948948;28;20053;-78
2024/01/20 12:56:17;;;;;;;9.82;4.82;;;;;;;;;;4971443;28;20528;-79
2024/01/20 12:58:43;;;;;;;10.10;5.18;;;;;;;;;;5037889;28;20491;-79
2024/01/20 13:01:08;;;;;;;12.48;5.82;;;;;;;;;;5034419;28;20037;-79
2024/01/20 13:03:34;;;;;;;11.00;5.55;;;;;;;;;;5036996;28;20033;-81
2024/01/20 13:06:06;;;;;;;16.33;6.22;;;;;;;;;;5004365;28;20406;-83
2024/01/20 13:08:31;;;;;;;12.57;5.63;;;;;;;;;;5021917;28;20038;-84
2024/01/20 13:10:57;;;;;;;12.75;5.75;;;;;;;;;;5021880;28;20038;-83
2024/01/20 13:13:22;;;;;;;12.15;5.70;;;;;;;;;;4984496;28;20034;-83
2024/01/20 13:15:47;;;;;;;10.20;5.55;;;;;;;;;;4984963;28;20030;-83
2024/01/20 13:18:13;;;;;;;14.30;5.97;;;;;;;;;;4986582;28;20061;-81
2024/01/20 13:20:39;;;;;;;11.93;6.13;;;;;;;;;;5009175;28;20129;-81
2024/01/20 13:23:05;;;;;;;13.45;6.50;;;;;;;;;;5012081;28;20041;-84
2024/01/20 13:25:39;;;;;;;13.38;5.75;;;;;;;;;;4997765;28;20041;-78
2024/01/20 13:28:07;;;;;;;13.98;6.03;;;;;;;;;;5008449;28;20567;-78
2024/01/20 13:30:38;;;;;;;19.00;7.10;;;;;;;;;;5009708;28;20037;-79
2024/01/20 13:33:04;;;;;;;12.45;5.70;;;;;;;;;;5015886;28;20095;-79
2024/01/20 13:35:30;;;;;;;15.18;5.88;;;;;;;;;;5010065;28;20588;-78
2024/01/20 13:37:55;;;;;;;11.98;5.32;;;;;;;;;;5010903;28;20120;-79
2024/01/20 13:40:29;;;;;;;11.85;6.22;;;;;;;;;;5023130;28;20033;-78
2024/01/20 13:42:55;;;;;;;12.32;5.85;;;;;;;;;;5029603;28;20125;-78
2024/01/20 13:45:20;;;;;;;12.43;6.00;;;;;;;;;;5029077;28;20116;-77
2024/01/20 13:47:46;;;;;;;11.15;5.43;;;;;;;;;;5003969;28;20631;-78
2024/01/20 13:50:11;;;;;;;20.77;6.50;;;;;;;;;;5015159;28;20043;-78
2024/01/20 13:52:38;;;;;;;11.00;5.80;;;;;;;;;;5014278;28;20096;-79
2024/01/20 13:55:07;;;;;;;12.35;5.50;;;;;;;;;;5011942;28;20121;-77
2024/01/20 13:57:33;;;;;;;13.15;6.05;;;;;;;;;;5028944;28;20029;-77
2024/01/20 13:59:58;;;;;;;10.43;5.55;;;;;;;;;;5036003;28;20553;-78
2024/01/20 14:02:24;;;;;;;10.90;5.47;;;;;;;;;;5020505;28;20171;-76
2024/01/20 14:04:52;;;;;;;11.55;5.35;;;;;;;;;;5030800;28;20064;-77
2024/01/20 14:07:17;;;;;;;16.92;6.10;;;;;;;;;;5023472;28;20440;-80
2024/01/20 14:09:43;;;;;;;10.55;5.45;;;;;;;;;;5011337;28;20033;-79
2024/01/20 14:12:09;;;;;;;12.50;5.47;;;;;;;;;;5025335;28;20124;-78
2024/01/20 14:14:36;;;;;;;11.93;5.45;;;;;;;;;;5031969;28;20071;-78
2024/01/20 14:17:02;;;;;;;13.65;5.63;;;;;;;;;;5008066;28;20394;-78
2024/01/20 14:19:28;;;;;;;12.80;5.70;;;;;;;;;;5000931;28;20029;-77
2024/01/20 14:21:53;;;;;;;14.05;5.97;;;;;;;;;;5009926;28;20493;-78
2024/01/20 14:24:19;;;;;;;12.18;5.90;;;;;;;;;;5020020;28;20042;-76
2024/01/20 14:26:45;;;;;;;12.63;5.60;;;;;;;;;;5003799;28;20037;-76